createdAt,value
2022-11-04T00:00:29.997Z,11.23
2022-11-04T00:02:56.975Z,10.07
2022-11-04T00:05:23.545Z,10.98
2022-11-04T00:08:08.859Z,9.90
2022-11-04T00:10:53.881Z,9.07
2022-11-04T00:13:20.352Z,9.50
2022-11-04T00:16:05.627Z,10.18
2022-11-04T00:18:32.155Z,7.88
2022-11-04T00:21:17.430Z,9.38
2022-11-04T00:24:02.305Z,9.93
2022-11-04T00:26:47.439Z,8.38
2022-11-04T00:29:13.996Z,8.38
2022-11-04T00:31:59.226Z,10.43
2022-11-04T00:34:25.759Z,7.80
2022-11-04T00:36:52.216Z,9.93
2022-11-04T00:39:18.695Z,9.07
2022-11-04T00:41:45.276Z,8.38
2022-11-04T00:44:11.760Z,11.73
2022-11-04T00:46:38.265Z,9.15
2022-11-04T00:49:05.074Z,8.35
2022-11-04T00:51:31.614Z,9.30
2022-11-04T00:53:58.335Z,8.18
2022-11-04T00:56:25.094Z,8.52
2022-11-04T00:58:52.112Z,9.82
2022-11-04T01:01:19.550Z,9.15
2022-11-04T01:03:51.413Z,8.23
2022-11-04T01:06:18.912Z,8.23
2022-11-04T01:08:45.485Z,8.20
2022-11-04T01:11:12.659Z,8.93
2022-11-04T01:13:39.824Z,10.27
2022-11-04T01:16:09.996Z,6.90
2022-11-04T01:18:36.768Z,5.88
2022-11-04T01:21:07.669Z,8.02
2022-11-04T01:23:35.259Z,6.22
2022-11-04T01:26:04.400Z,6.35
2022-11-04T01:28:30.860Z,5.53
2022-11-04T01:30:57.376Z,7.22
2022-11-04T01:33:24.972Z,4.22
2022-11-04T01:35:51.521Z,5.72
2022-11-04T01:38:18.061Z,4.63
2022-11-04T01:40:44.576Z,4.95
2022-11-04T01:43:19.620Z,5.10
2022-11-04T01:45:53.908Z,3.25
2022-11-04T01:48:27.858Z,3.67
2022-11-04T01:50:55.404Z,3.40
2022-11-04T01:53:39.716Z,3.97
2022-11-04T01:56:14.537Z,3.75
2022-11-04T01:58:49.518Z,3.05
2022-11-04T02:01:16.382Z,2.58
2022-11-04T02:03:53.117Z,3.22
2022-11-04T02:06:21.325Z,2.35
2022-11-04T02:08:49.377Z,3.35
2022-11-04T02:11:36.566Z,2.88
2022-11-04T02:14:03.247Z,2.28
2022-11-04T02:16:35.655Z,2.35
2022-11-04T02:19:17.487Z,4.80
2022-11-04T02:22:02.758Z,3.08
2022-11-04T02:25:08.575Z,2.85
2022-11-04T02:27:53.660Z,2.58
2022-11-04T02:30:21.793Z,2.08
2022-11-04T02:33:20.110Z,2.10
2022-11-04T02:36:18.962Z,2.08
2022-11-04T02:38:57.787Z,2.10
2022-11-04T02:41:32.752Z,1.98
2022-11-04T02:44:16.634Z,3.05
2022-11-04T02:46:51.396Z,3.40
2022-11-04T02:49:23.769Z,2.75
2022-11-04T02:51:58.718Z,2.03
2022-11-04T02:54:36.872Z,2.72
2022-11-04T02:57:07.211Z,2.15
2022-11-04T02:59:42.110Z,2.55
2022-11-04T03:02:14.415Z,1.70
2022-11-04T03:04:45.456Z,2.58
2022-11-04T03:07:15.854Z,2.60
2022-11-04T03:09:51.567Z,2.08
2022-11-04T03:12:25.216Z,1.80
2022-11-04T03:14:59.644Z,1.45
2022-11-04T03:18:18.861Z,1.85
2022-11-04T03:20:48.578Z,2.40
2022-11-04T03:23:15.552Z,1.27
2022-11-04T03:25:45.945Z,1.88
2022-11-04T03:28:27.958Z,1.55
2022-11-04T03:30:59.194Z,1.92
2022-11-04T03:33:46.271Z,1.48
2022-11-04T03:36:13.019Z,1.08
2022-11-04T03:38:39.818Z,1.98
2022-11-04T03:41:19.882Z,2.38
2022-11-04T03:43:46.409Z,2.58
2022-11-04T03:46:13.168Z,2.42
2022-11-04T03:48:40.284Z,2.20
2022-11-04T03:51:06.892Z,2.15
2022-11-04T03:53:33.653Z,1.88
2022-11-04T03:56:37.224Z,2.55
2022-11-04T03:59:17.320Z,3.67
2022-11-04T04:01:53.020Z,1.85
2022-11-04T04:04:40.432Z,2.15
2022-11-04T04:07:19.388Z,3.17
2022-11-04T04:10:04.396Z,1.48
2022-11-04T04:12:37.790Z,1.98
2022-11-04T04:15:26.168Z,1.17
2022-11-04T04:17:56.428Z,3.70
2022-11-04T04:20:27.189Z,1.65
2022-11-04T04:23:29.853Z,2.83
2022-11-04T04:26:18.885Z,1.13
2022-11-04T04:28:46.782Z,1.42
2022-11-04T04:31:38.989Z,3.08
2022-11-04T04:34:06.282Z,3.58
2022-11-04T04:36:39.710Z,1.33
2022-11-04T04:39:28.291Z,1.85
2022-11-04T04:42:13.570Z,1.92
2022-11-04T04:45:01.064Z,2.63
2022-11-04T04:47:33.336Z,1.75
2022-11-04T04:50:01.615Z,1.50
2022-11-04T04:52:36.845Z,2.03
2022-11-04T04:55:04.004Z,3.40
2022-11-04T04:57:30.576Z,4.75
2022-11-04T04:59:57.126Z,1.63
2022-11-04T05:02:23.907Z,4.22
2022-11-04T05:04:50.433Z,3.17
2022-11-04T05:07:16.949Z,1.90
2022-11-04T05:09:43.493Z,2.15
2022-11-04T05:12:10.311Z,2.55
2022-11-04T05:14:36.882Z,4.25
2022-11-04T05:17:03.622Z,2.67
2022-11-04T05:19:30.219Z,2.40
2022-11-04T05:21:56.764Z,4.05
2022-11-04T05:24:23.271Z,5.22
2022-11-04T05:26:49.833Z,1.98
2022-11-04T05:29:16.341Z,3.25
2022-11-04T05:31:42.961Z,7.47
2022-11-04T05:34:12.943Z,6.10
2022-11-04T05:36:40.297Z,7.45
2022-11-04T05:39:07.458Z,3.92
2022-11-04T05:41:34.453Z,2.58
2022-11-04T05:44:02.541Z,5.78
2022-11-04T05:46:29.674Z,4.38
2022-11-04T05:48:56.540Z,7.43
2022-11-04T05:51:26.258Z,5.15
2022-11-04T05:53:53.029Z,5.80
2022-11-04T05:56:19.704Z,4.20
2022-11-04T05:58:46.188Z,5.18
2022-11-04T06:01:24.400Z,6.95
2022-11-04T06:03:52.178Z,6.25
2022-11-04T06:06:18.976Z,7.63
2022-11-04T06:08:45.567Z,8.05
2022-11-04T06:11:12.154Z,5.25
2022-11-04T06:13:38.789Z,6.20
2022-11-04T06:16:05.387Z,3.63
2022-11-04T06:18:31.931Z,5.75
2022-11-04T06:21:29.304Z,8.10
2022-11-04T06:23:57.942Z,5.88
2022-11-04T06:26:29.023Z,5.30
2022-11-04T06:28:56.819Z,4.95
2022-11-04T06:31:23.851Z,11.85
2022-11-04T06:33:50.539Z,7.25
2022-11-04T06:36:17.843Z,6.80
2022-11-04T06:38:44.487Z,5.78
2022-11-04T06:41:14.395Z,7.25
2022-11-04T06:43:40.978Z,5.90
2022-11-04T06:46:24.887Z,9.48
2022-11-04T06:48:51.463Z,8.80
2022-11-04T06:51:18.049Z,11.63
2022-11-04T06:53:44.638Z,7.78
2022-11-04T06:56:12.445Z,6.68
2022-11-04T06:58:38.979Z,6.80
2022-11-04T07:01:12.638Z,9.35
2022-11-04T07:03:41.323Z,13.95
2022-11-04T07:06:09.601Z,8.20
2022-11-04T07:08:36.228Z,6.82
2022-11-04T07:11:04.058Z,5.65
2022-11-04T07:13:30.734Z,6.88
2022-11-04T07:15:58.029Z,10.00
2022-11-04T07:18:24.590Z,7.07
2022-11-04T07:20:51.698Z,7.40
2022-11-04T07:23:18.242Z,5.32
2022-11-04T07:25:44.843Z,7.13
2022-11-04T07:28:12.231Z,7.82
2022-11-04T07:30:39.017Z,8.77
2022-11-04T07:33:05.696Z,10.85
2022-11-04T07:35:32.298Z,8.85
2022-11-04T07:37:58.949Z,8.20
2022-11-04T07:40:25.588Z,5.53
2022-11-04T07:42:52.204Z,10.07
2022-11-04T07:45:18.810Z,9.15
2022-11-04T07:47:45.336Z,5.88
2022-11-04T07:50:11.958Z,6.05
2022-11-04T07:52:38.556Z,8.23
2022-11-04T07:55:06.327Z,6.50
2022-11-04T07:57:32.997Z,10.25
2022-11-04T07:59:59.659Z,8.50
2022-11-04T08:02:31.053Z,6.68
2022-11-04T08:05:00.539Z,13.35
2022-11-04T08:07:27.103Z,7.55
2022-11-04T08:09:53.638Z,11.77
2022-11-04T08:12:22.126Z,11.77
2022-11-04T08:14:48.663Z,9.77
2022-11-04T08:17:15.243Z,8.45
2022-11-04T08:19:41.987Z,8.93
2022-11-04T08:22:08.793Z,11.35
2022-11-04T08:24:35.803Z,6.97
2022-11-04T08:27:02.730Z,6.05
2022-11-04T08:29:29.271Z,10.55
2022-11-04T08:31:55.853Z,7.38
2022-11-04T08:34:22.528Z,11.32
2022-11-04T08:36:49.733Z,8.63
2022-11-04T08:39:16.317Z,9.02
2022-11-04T08:41:45.334Z,8.18
2022-11-04T08:44:15.111Z,6.63
2022-11-04T08:46:43.390Z,10.53
2022-11-04T08:49:12.815Z,8.45
2022-11-04T08:51:44.348Z,9.65
2022-11-04T08:54:11.403Z,8.35
2022-11-04T08:56:40.185Z,6.32
2022-11-04T08:59:06.959Z,12.07
2022-11-04T09:01:36.263Z,6.15
2022-11-04T09:04:03.530Z,9.68
2022-11-04T09:06:34.132Z,4.75
2022-11-04T09:09:04.442Z,7.35
2022-11-04T09:11:38.202Z,6.55
2022-11-04T09:14:05.986Z,9.82
2022-11-04T09:16:34.421Z,6.63
2022-11-04T09:19:01.977Z,5.72
2022-11-04T09:21:28.887Z,5.32
2022-11-04T09:23:56.480Z,9.05
2022-11-04T09:26:24.037Z,4.63
2022-11-04T09:28:57.947Z,7.88
2022-11-04T09:31:29.895Z,9.90
2022-11-04T09:33:56.874Z,6.72
2022-11-04T09:36:23.813Z,10.77
2022-11-04T09:38:50.484Z,9.63
2022-11-04T09:41:36.244Z,6.20
2022-11-04T09:44:18.246Z,9.57
2022-11-04T09:46:49.789Z,8.63
2022-11-04T09:49:16.954Z,10.25
2022-11-04T09:51:55.577Z,8.07
2022-11-04T09:54:35.107Z,8.57
2022-11-04T09:57:02.884Z,7.03
2022-11-04T09:59:33.587Z,8.55
2022-11-04T10:02:07.371Z,7.95
2022-11-04T10:05:11.508Z,9.82
2022-11-04T10:08:22.758Z,5.70
2022-11-04T10:11:21.738Z,8.07
2022-11-04T10:14:23.515Z,8.18
2022-11-04T10:17:03.473Z,4.70
2022-11-04T10:20:12.177Z,9.82
2022-11-04T10:22:59.451Z,4.53
2022-11-04T10:25:53.659Z,5.30
2022-11-04T10:28:26.308Z,7.32
2022-11-04T10:30:53.003Z,3.63
2022-11-04T10:33:39.826Z,6.53
2022-11-04T10:36:09.147Z,3.70
2022-11-04T10:38:38.604Z,3.30
2022-11-04T10:41:26.634Z,4.47
2022-11-04T10:44:08.480Z,5.35
2022-11-04T10:46:43.914Z,5.15
2022-11-04T10:52:55.892Z,6.63
2022-11-04T10:55:41.309Z,6.00
2022-11-04T10:58:18.159Z,9.98
2022-11-04T11:00:44.889Z,5.95
2022-11-04T11:03:33.365Z,9.25
2022-11-04T11:06:24.885Z,6.93
2022-11-04T11:08:54.810Z,7.32
2022-11-04T11:11:49.074Z,6.07
2022-11-04T11:14:21.281Z,5.07
2022-11-04T11:16:48.290Z,7.13
2022-11-04T11:19:25.138Z,6.90
2022-11-04T11:21:54.779Z,5.65
2022-11-04T11:24:27.214Z,5.25
2022-11-04T11:27:01.088Z,7.32
2022-11-04T11:29:40.485Z,5.65
2022-11-04T11:32:28.309Z,7.38
2022-11-04T11:34:55.015Z,8.27
2022-11-04T11:37:24.729Z,4.88
2022-11-04T11:39:51.487Z,7.70
2022-11-04T11:42:21.782Z,5.43
2022-11-04T11:44:52.927Z,7.18
2022-11-04T11:47:25.068Z,9.80
2022-11-04T11:50:06.066Z,5.90
2022-11-04T11:52:34.966Z,6.00
2022-11-04T11:55:07.568Z,5.75
2022-11-04T12:00:44.241Z,4.43
2022-11-04T12:03:17.719Z,4.95
2022-11-04T12:09:15.432Z,9.05
2022-11-04T12:12:04.313Z,6.57
2022-11-04T12:14:49.369Z,7.22
2022-11-04T12:17:53.593Z,7.03
2022-11-04T12:20:49.511Z,5.60
2022-11-04T12:23:34.499Z,4.18
2022-11-04T12:26:27.265Z,5.50
2022-11-04T12:29:09.052Z,5.65
2022-11-04T12:31:55.637Z,4.57
2022-11-04T12:34:45.478Z,5.28
2022-11-04T12:37:22.445Z,7.53
2022-11-04T12:40:12.159Z,5.68
2022-11-04T12:42:55.058Z,4.55
2022-11-04T12:45:31.601Z,3.83
2022-11-04T12:48:27.569Z,6.55
2022-11-04T12:51:01.750Z,4.30
2022-11-04T12:53:49.524Z,5.75
2022-11-04T12:56:20.636Z,5.22
2022-11-04T12:58:53.276Z,4.93
2022-11-04T13:01:35.560Z,6.28
2022-11-04T13:04:09.585Z,6.65
2022-11-04T13:06:48.236Z,4.63
2022-11-04T13:09:20.663Z,7.15
2022-11-04T13:11:56.401Z,6.10
2022-11-04T13:14:30.222Z,4.32
2022-11-04T13:17:06.944Z,3.88
2022-11-04T13:19:43.575Z,4.85
2022-11-04T13:22:16.040Z,6.55
2022-11-04T13:24:50.678Z,4.53
2022-11-04T13:27:24.907Z,6.10
2022-11-04T13:30:04.180Z,5.57
2022-11-04T13:32:59.927Z,4.85
2022-11-04T13:35:36.138Z,3.97
2022-11-04T13:38:12.784Z,6.68
2022-11-04T13:41:23.125Z,5.90
2022-11-04T13:43:59.708Z,5.57
2022-11-04T13:46:31.124Z,4.20
2022-11-04T13:49:07.527Z,7.40
2022-11-04T13:51:37.948Z,6.07
2022-11-04T13:54:06.157Z,4.05
2022-11-04T13:56:39.659Z,5.03
2022-11-04T13:59:30.358Z,4.93
2022-11-04T14:04:40.478Z,9.98
2022-11-04T14:07:11.408Z,7.32
2022-11-04T14:09:44.073Z,6.55
2022-11-04T14:12:10.792Z,5.63
2022-11-04T14:14:42.889Z,7.32
2022-11-04T14:17:32.627Z,4.38
2022-11-04T14:20:07.790Z,7.28
2022-11-04T14:22:49.278Z,5.78
2022-11-04T14:25:19.348Z,8.35
2022-11-04T14:27:49.224Z,5.78
2022-11-04T14:30:35.847Z,8.95
2022-11-04T14:33:08.610Z,6.30
2022-11-04T14:35:36.301Z,4.38
2022-11-04T14:38:18.338Z,5.95
2022-11-04T14:41:23.366Z,9.57
2022-11-04T14:43:51.530Z,6.32
2022-11-04T14:46:25.287Z,7.53
2022-11-04T14:48:55.828Z,9.77
2022-11-04T14:53:51.928Z,5.13
2022-11-04T14:56:24.383Z,4.32
2022-11-04T14:59:01.860Z,8.38
2022-11-04T15:01:35.411Z,5.57
2022-11-04T15:04:23.799Z,5.05
2022-11-04T15:07:02.320Z,7.45
2022-11-04T15:09:36.838Z,4.47
2022-11-04T15:12:31.562Z,5.47
2022-11-04T15:15:00.464Z,4.22
2022-11-04T15:17:30.789Z,5.97
2022-11-04T15:20:01.506Z,8.05
2022-11-04T15:25:05.881Z,4.63
2022-11-04T15:27:34.404Z,7.82
2022-11-04T15:30:03.118Z,5.85
2022-11-04T15:32:30.157Z,3.35
2022-11-04T15:34:57.782Z,3.95
2022-11-04T15:37:26.117Z,3.53
2022-11-04T15:39:56.664Z,5.43
2022-11-04T15:45:22.168Z,5.78
2022-11-04T15:47:49.474Z,7.55
2022-11-04T15:50:24.778Z,5.60
2022-11-04T15:52:54.322Z,9.32
2022-11-04T15:55:24.370Z,4.97
2022-11-04T15:57:51.810Z,4.45
2022-11-04T16:00:24.503Z,8.32
2022-11-04T16:02:56.392Z,6.60
2022-11-04T16:05:27.327Z,6.43
2022-11-04T16:07:56.491Z,6.65
2022-11-04T16:10:34.678Z,7.13
2022-11-04T16:13:16.203Z,9.00
2022-11-04T16:15:57.988Z,11.10
2022-11-04T16:18:38.693Z,13.40
2022-11-04T16:23:58.886Z,5.63
2022-11-04T16:26:32.144Z,7.40
2022-11-04T16:29:00.031Z,8.90
2022-11-04T16:31:33.105Z,7.95
2022-11-04T16:33:59.878Z,9.32
2022-11-04T16:36:32.353Z,5.28
2022-11-04T16:39:04.684Z,5.25
2022-11-04T16:41:35.732Z,4.97
2022-11-04T16:44:04.650Z,7.53
2022-11-04T16:46:33.728Z,8.23
2022-11-04T16:49:00.277Z,9.25
2022-11-04T16:51:26.852Z,7.22
2022-11-04T16:53:54.539Z,7.35
2022-11-04T16:56:24.762Z,6.88
2022-11-04T16:58:52.348Z,9.77
2022-11-04T17:01:19.696Z,8.32
2022-11-04T17:03:46.743Z,8.07
2022-11-04T17:06:14.976Z,8.60
2022-11-04T17:08:42.094Z,9.60
2022-11-04T17:11:10.169Z,7.43
2022-11-04T17:13:37.267Z,9.27
2022-11-04T17:16:05.615Z,5.20
2022-11-04T17:18:34.458Z,6.72
2022-11-04T17:21:05.480Z,6.13
2022-11-04T17:23:32.179Z,7.85
2022-11-04T17:25:58.818Z,5.65
2022-11-04T17:28:26.825Z,5.28
2022-11-04T17:30:53.481Z,7.53
2022-11-04T17:33:20.611Z,7.00
2022-11-04T17:35:49.716Z,9.38
2022-11-04T17:38:17.247Z,9.05
2022-11-04T17:41:03.428Z,9.65
2022-11-04T17:43:48.804Z,14.02
2022-11-04T17:46:34.387Z,8.27
2022-11-04T17:49:13.276Z,9.40
2022-11-04T17:51:42.825Z,9.82
2022-11-04T17:54:10.276Z,11.60
2022-11-04T17:56:37.830Z,8.38
2022-11-04T17:59:08.325Z,9.20
2022-11-04T18:01:45.521Z,8.85
2022-11-04T18:04:17.812Z,11.13
2022-11-04T18:07:01.411Z,8.25
2022-11-04T18:09:30.035Z,10.23
2022-11-04T18:12:15.621Z,9.23
2022-11-04T18:14:46.620Z,11.43
2022-11-04T18:17:13.291Z,9.65
2022-11-04T18:19:39.838Z,9.38
2022-11-04T18:22:06.390Z,7.32
2022-11-04T18:24:32.979Z,6.63
2022-11-04T18:27:00.819Z,7.18
2022-11-04T18:29:27.694Z,9.23
2022-11-04T18:31:58.262Z,9.30
2022-11-04T18:34:25.856Z,8.23
2022-11-04T18:36:52.669Z,10.80
2022-11-04T18:39:19.756Z,8.02
2022-11-04T18:41:46.942Z,10.05
2022-11-04T18:44:19.286Z,7.25
2022-11-04T18:46:49.726Z,10.57
2022-11-04T18:49:17.002Z,9.73
2022-11-04T18:51:44.293Z,9.30
2022-11-04T18:54:12.159Z,12.25
2022-11-04T18:56:38.967Z,9.63
2022-11-04T18:59:09.182Z,16.35
2022-11-04T19:01:36.112Z,9.80
2022-11-04T19:04:02.977Z,10.35
2022-11-04T19:06:32.885Z,8.63
2022-11-04T19:09:13.306Z,10.82
2022-11-04T19:11:48.673Z,12.40
2022-11-04T19:14:18.957Z,13.75
2022-11-04T19:16:50.514Z,11.93
2022-11-04T19:19:17.148Z,15.43
2022-11-04T19:21:43.785Z,14.32
2022-11-04T19:24:12.480Z,11.77
2022-11-04T19:26:40.905Z,14.98
2022-11-04T19:29:07.681Z,11.63
2022-11-04T19:31:34.420Z,17.98
2022-11-04T19:34:06.971Z,12.15
2022-11-04T19:36:35.297Z,12.20
2022-11-04T19:39:03.828Z,17.67
2022-11-04T19:41:51.725Z,13.32
2022-11-04T19:44:25.022Z,17.55
2022-11-04T19:46:51.612Z,17.83
2022-11-04T19:49:18.769Z,13.07
2022-11-04T19:51:45.516Z,15.38
2022-11-04T19:54:12.762Z,13.77
2022-11-04T19:56:39.825Z,15.65
2022-11-04T19:59:07.798Z,16.25
2022-11-04T20:01:35.444Z,13.65
2022-11-04T20:04:03.887Z,12.15
2022-11-04T20:06:32.385Z,13.80
2022-11-04T20:09:04.506Z,15.30
2022-11-04T20:11:32.989Z,14.02
2022-11-04T20:14:06.445Z,18.10
2022-11-04T20:16:39.636Z,15.10
2022-11-04T20:19:06.777Z,16.48
2022-11-04T20:21:36.038Z,14.10
2022-11-04T20:24:07.932Z,19.08
2022-11-04T20:26:36.905Z,15.55
2022-11-04T20:29:04.594Z,14.27
2022-11-04T20:31:33.781Z,13.80
2022-11-04T20:34:04.879Z,12.25
2022-11-04T20:36:32.204Z,12.02
2022-11-04T20:39:00.449Z,14.52
2022-11-04T20:41:27.513Z,18.48
2022-11-04T20:43:57.080Z,14.65
2022-11-04T20:46:26.532Z,11.23
2022-11-04T20:48:54.232Z,14.80
2022-11-04T20:51:24.074Z,13.05
2022-11-04T20:53:56.326Z,16.42
2022-11-04T20:56:24.861Z,12.60
2022-11-04T20:58:56.055Z,12.60
2022-11-04T21:01:32.030Z,12.50
2022-11-04T21:04:04.916Z,13.40
2022-11-04T21:06:32.619Z,16.23
2022-11-04T21:09:00.029Z,13.30
2022-11-04T21:11:31.762Z,10.65
2022-11-04T21:13:59.194Z,10.98
2022-11-04T21:16:26.438Z,9.95
2022-11-04T21:18:53.020Z,12.18
2022-11-04T21:21:19.702Z,10.55
2022-11-04T21:23:46.971Z,12.98
2022-11-04T21:26:23.025Z,10.90
2022-11-04T21:28:54.882Z,14.35
2022-11-04T21:31:22.283Z,13.52
2022-11-04T21:33:49.000Z,15.75
2022-11-04T21:36:15.647Z,10.05
2022-11-04T21:38:43.037Z,10.40
2022-11-04T21:41:16.407Z,9.07
2022-11-04T21:43:42.972Z,11.75
2022-11-04T21:46:15.525Z,11.32
2022-11-04T21:48:42.892Z,12.23
2022-11-04T21:51:18.383Z,10.40
2022-11-04T21:53:46.576Z,10.57
2022-11-04T21:56:19.380Z,11.20
2022-11-04T21:58:46.805Z,9.70
2022-11-04T22:01:18.758Z,9.85
2022-11-04T22:03:50.584Z,7.90
2022-11-04T22:06:17.407Z,7.45
2022-11-04T22:08:49.099Z,8.50
2022-11-04T22:11:18.731Z,8.93
2022-11-04T22:13:45.462Z,7.72
2022-11-04T22:16:20.450Z,8.95
2022-11-04T22:18:47.756Z,6.18
2022-11-04T22:21:17.111Z,7.95
2022-11-04T22:23:44.250Z,10.23
2022-11-04T22:26:19.160Z,17.35
2022-11-04T22:28:46.183Z,15.57
2022-11-04T22:31:19.068Z,8.18
2022-11-04T22:33:48.536Z,10.45
2022-11-04T22:36:15.248Z,10.10
2022-11-04T22:38:47.656Z,8.52
2022-11-04T22:41:29.062Z,10.70
2022-11-04T22:43:57.004Z,11.23
2022-11-04T22:46:31.832Z,17.63
2022-11-04T22:48:59.668Z,13.55
2022-11-04T22:51:26.302Z,14.32
2022-11-04T22:53:57.746Z,9.93
2022-11-04T22:56:26.774Z,8.02
2022-11-04T22:58:54.193Z,8.93
2022-11-04T23:01:21.398Z,7.93
2022-11-04T23:03:50.824Z,7.93
2022-11-04T23:06:17.516Z,10.63
2022-11-04T23:08:45.201Z,9.68
2022-11-04T23:11:42.957Z,9.80
2022-11-04T23:14:30.841Z,9.75
2022-11-04T23:17:17.574Z,9.50
2022-11-04T23:19:44.492Z,8.05
2022-11-04T23:22:30.952Z,5.32
2022-11-04T23:25:06.672Z,7.10
2022-11-04T23:27:58.678Z,5.57
2022-11-04T23:30:27.076Z,11.95
2022-11-04T23:32:57.688Z,7.15
2022-11-04T23:38:12.410Z,6.57
2022-11-04T23:40:39.317Z,8.70
2022-11-04T23:43:06.371Z,7.20
2022-11-04T23:45:51.907Z,6.95
2022-11-04T23:48:37.133Z,7.60
2022-11-04T23:51:22.577Z,7.28
2022-11-04T23:54:07.665Z,10.52
2022-11-04T23:56:53.380Z,7.70
2022-11-04T23:59:39.131Z,8.05
